sensor_id;sensor_type;location;lat;lon;timestamp;P1;durP1;ratioP1;P2;durP2;ratioP2
60054;SDS011;45930;53.514;55.904;2023-05-10T00:00:41;28.92;;;23.70;;
60054;SDS011;45930;53.514;55.904;2023-05-10T00:01:42;38.45;;;24.30;;
60054;SDS011;45930;53.514;55.904;2023-05-10T00:02:43;28.40;;;24.00;;
60054;SDS011;45930;53.514;55.904;2023-05-10T00:03:44;32.40;;;24.70;;
60054;SDS011;45930;53.514;55.904;2023-05-10T00:04:45;33.92;;;24.20;;
60054;SDS011;45930;53.514;55.904;2023-05-10T00:05:45;33.70;;;25.00;;
60054;SDS011;45930;53.514;55.904;2023-05-10T00:06:46;30.52;;;24.02;;
60054;SDS011;45930;53.514;55.904;2023-05-10T00:07:47;33.35;;;25.77;;
60054;SDS011;45930;53.514;55.904;2023-05-10T00:08:48;31.65;;;24.02;;
60054;SDS011;45930;53.514;55.904;2023-05-10T00:09:49;34.03;;;24.10;;
60054;SDS011;45930;53.514;55.904;2023-05-10T00:10:50;32.97;;;25.77;;
60054;SDS011;45930;53.514;55.904;2023-05-10T00:11:50;34.60;;;26.13;;
60054;SDS011;45930;53.514;55.904;2023-05-10T00:12:51;32.05;;;23.95;;
60054;SDS011;45930;53.514;55.904;2023-05-10T00:13:52;31.50;;;25.30;;
60054;SDS011;45930;53.514;55.904;2023-05-10T00:14:53;35.58;;;25.35;;
60054;SDS011;45930;53.514;55.904;2023-05-10T00:15:53;33.65;;;25.10;;
60054;SDS011;45930;53.514;55.904;2023-05-10T00:16:54;34.72;;;25.88;;
60054;SDS011;45930;53.514;55.904;2023-05-10T00:17:56;32.88;;;26.33;;
60054;SDS011;45930;53.514;55.904;2023-05-10T00:18:57;35.00;;;26.75;;
60054;SDS011;45930;53.514;55.904;2023-05-10T00:19:57;36.17;;;27.23;;
60054;SDS011;45930;53.514;55.904;2023-05-10T00:20:58;33.15;;;25.45;;
60054;SDS011;45930;53.514;55.904;2023-05-10T00:21:59;35.10;;;25.95;;
60054;SDS011;45930;53.514;55.904;2023-05-10T00:23:00;35.33;;;25.77;;
60054;SDS011;45930;53.514;55.904;2023-05-10T00:24:01;32.65;;;26.40;;
60054;SDS011;45930;53.514;55.904;2023-05-10T00:25:02;33.80;;;25.65;;
60054;SDS011;45930;53.514;55.904;2023-05-10T00:26:04;36.70;;;26.25;;
60054;SDS011;45930;53.514;55.904;2023-05-10T00:27:05;38.95;;;27.13;;
60054;SDS011;45930;53.514;55.904;2023-05-10T00:28:05;36.15;;;27.60;;
60054;SDS011;45930;53.514;55.904;2023-05-10T00:29:06;37.38;;;27.63;;
60054;SDS011;45930;53.514;55.904;2023-05-10T00:30:07;34.65;;;26.48;;
60054;SDS011;45930;53.514;55.904;2023-05-10T00:31:09;34.72;;;25.50;;
60054;SDS011;45930;53.514;55.904;2023-05-10T00:32:09;39.35;;;26.63;;
60054;SDS011;45930;53.514;55.904;2023-05-10T00:33:10;35.15;;;26.45;;
60054;SDS011;45930;53.514;55.904;2023-05-10T00:34:11;37.72;;;27.95;;
60054;SDS011;45930;53.514;55.904;2023-05-10T00:35:12;36.55;;;27.35;;
60054;SDS011;45930;53.514;55.904;2023-05-10T00:36:13;37.92;;;27.23;;
60054;SDS011;45930;53.514;55.904;2023-05-10T00:37:14;36.85;;;26.95;;
60054;SDS011;45930;53.514;55.904;2023-05-10T00:38:15;36.80;;;27.17;;
60054;SDS011;45930;53.514;55.904;2023-05-10T00:39:15;38.60;;;27.75;;
60054;SDS011;45930;53.514;55.904;2023-05-10T00:40:16;34.13;;;25.80;;
60054;SDS011;45930;53.514;55.904;2023-05-10T00:41:17;39.30;;;29.92;;
60054;SDS011;45930;53.514;55.904;2023-05-10T00:42:18;40.13;;;28.50;;
60054;SDS011;45930;53.514;55.904;2023-05-10T00:43:19;39.20;;;30.77;;
60054;SDS011;45930;53.514;55.904;2023-05-10T00:44:19;39.70;;;28.85;;
60054;SDS011;45930;53.514;55.904;2023-05-10T00:45:20;37.28;;;29.83;;
60054;SDS011;45930;53.514;55.904;2023-05-10T00:46:21;38.88;;;29.17;;
60054;SDS011;45930;53.514;55.904;2023-05-10T00:47:22;37.88;;;28.55;;
60054;SDS011;45930;53.514;55.904;2023-05-10T00:48:23;38.08;;;29.35;;
60054;SDS011;45930;53.514;55.904;2023-05-10T00:49:24;36.83;;;27.98;;
60054;SDS011;45930;53.514;55.904;2023-05-10T00:50:25;39.20;;;27.02;;
60054;SDS011;45930;53.514;55.904;2023-05-10T00:51:26;36.53;;;28.63;;
60054;SDS011;45930;53.514;55.904;2023-05-10T00:52:27;38.75;;;27.73;;
60054;SDS011;45930;53.514;55.904;2023-05-10T00:53:31;40.17;;;28.58;;
60054;SDS011;45930;53.514;55.904;2023-05-10T00:54:33;43.08;;;28.30;;
60054;SDS011;45930;53.514;55.904;2023-05-10T00:55:34;36.30;;;27.90;;
60054;SDS011;45930;53.514;55.904;2023-05-10T00:56:35;38.67;;;29.48;;
60054;SDS011;45930;53.514;55.904;2023-05-10T00:57:37;41.47;;;28.13;;
60054;SDS011;45930;53.514;55.904;2023-05-10T00:58:38;40.63;;;28.35;;
60054;SDS011;45930;53.514;55.904;2023-05-10T00:59:39;39.47;;;27.40;;
60054;SDS011;45930;53.514;55.904;2023-05-10T01:00:41;40.30;;;28.38;;
60054;SDS011;45930;53.514;55.904;2023-05-10T01:01:46;38.38;;;27.52;;
60054;SDS011;45930;53.514;55.904;2023-05-10T01:02:47;35.40;;;26.20;;
60054;SDS011;45930;53.514;55.904;2023-05-10T01:03:49;38.00;;;28.27;;
60054;SDS011;45930;53.514;55.904;2023-05-10T01:04:50;36.65;;;27.27;;
60054;SDS011;45930;53.514;55.904;2023-05-10T01:05:52;37.75;;;27.13;;
60054;SDS011;45930;53.514;55.904;2023-05-10T01:06:53;36.70;;;25.58;;
60054;SDS011;45930;53.514;55.904;2023-05-10T01:07:54;37.00;;;26.52;;
60054;SDS011;45930;53.514;55.904;2023-05-10T01:08:54;39.78;;;27.70;;
60054;SDS011;45930;53.514;55.904;2023-05-10T01:09:56;42.08;;;28.73;;
60054;SDS011;45930;53.514;55.904;2023-05-10T01:10:58;31.95;;;25.13;;
60054;SDS011;45930;53.514;55.904;2023-05-10T01:11:59;37.50;;;27.55;;
60054;SDS011;45930;53.514;55.904;2023-05-10T01:13:01;36.83;;;26.83;;
60054;SDS011;45930;53.514;55.904;2023-05-10T01:14:03;40.15;;;28.10;;
60054;SDS011;45930;53.514;55.904;2023-05-10T01:15:05;32.60;;;24.23;;
60054;SDS011;45930;53.514;55.904;2023-05-10T01:16:08;37.08;;;26.13;;
60054;SDS011;45930;53.514;55.904;2023-05-10T01:17:09;38.17;;;27.30;;
60054;SDS011;45930;53.514;55.904;2023-05-10T01:18:12;37.42;;;27.35;;
60054;SDS011;45930;53.514;55.904;2023-05-10T01:19:22;39.08;;;27.27;;
60054;SDS011;45930;53.514;55.904;2023-05-10T01:20:25;36.97;;;27.38;;
60054;SDS011;45930;53.514;55.904;2023-05-10T01:21:38;41.20;;;25.42;;
60054;SDS011;45930;53.514;55.904;2023-05-10T01:23:17;39.22;;;27.80;;
60054;SDS011;45930;53.514;55.904;2023-05-10T01:25:59;37.90;;;28.65;;
60054;SDS011;45930;53.514;55.904;2023-05-10T01:35:06;39.67;;;27.38;;
60054;SDS011;45930;53.514;55.904;2023-05-10T01:36:23;37.67;;;27.67;;
60054;SDS011;45930;53.514;55.904;2023-05-10T01:37:33;39.42;;;27.42;;
60054;SDS011;45930;53.514;55.904;2023-05-10T01:38:42;34.33;;;26.77;;
60054;SDS011;45930;53.514;55.904;2023-05-10T01:43:19;34.80;;;24.30;;
60054;SDS011;45930;53.514;55.904;2023-05-10T01:44:27;41.33;;;27.80;;
60054;SDS011;45930;53.514;55.904;2023-05-10T01:45:33;37.03;;;27.60;;
60054;SDS011;45930;53.514;55.904;2023-05-10T01:46:49;36.33;;;27.85;;
60054;SDS011;45930;53.514;55.904;2023-05-10T01:48:09;41.65;;;27.85;;
60054;SDS011;45930;53.514;55.904;2023-05-10T01:49:12;35.13;;;26.75;;
60054;SDS011;45930;53.514;55.904;2023-05-10T01:50:24;41.30;;;30.13;;
60054;SDS011;45930;53.514;55.904;2023-05-10T01:51:36;37.92;;;26.75;;
60054;SDS011;45930;53.514;55.904;2023-05-10T01:52:41;40.55;;;26.10;;
60054;SDS011;45930;53.514;55.904;2023-05-10T01:53:45;36.70;;;26.30;;
60054;SDS011;45930;53.514;55.904;2023-05-10T01:54:55;39.63;;;28.13;;
60054;SDS011;45930;53.514;55.904;2023-05-10T01:56:05;37.20;;;24.50;;
60054;SDS011;45930;53.514;55.904;2023-05-10T01:57:09;44.22;;;27.58;;
60054;SDS011;45930;53.514;55.904;2023-05-10T01:58:19;44.80;;;27.95;;
60054;SDS011;45930;53.514;55.904;2023-05-10T01:59:22;39.58;;;25.17;;
60054;SDS011;45930;53.514;55.904;2023-05-10T02:00:30;34.63;;;25.38;;
60054;SDS011;45930;53.514;55.904;2023-05-10T02:01:32;36.95;;;26.48;;
60054;SDS011;45930;53.514;55.904;2023-05-10T02:02:38;35.42;;;25.85;;
60054;SDS011;45930;53.514;55.904;2023-05-10T02:03:42;37.35;;;26.48;;
60054;SDS011;45930;53.514;55.904;2023-05-10T02:04:44;37.60;;;27.58;;
60054;SDS011;45930;53.514;55.904;2023-05-10T02:05:46;37.40;;;26.58;;
60054;SDS011;45930;53.514;55.904;2023-05-10T02:06:49;42.33;;;27.52;;
60054;SDS011;45930;53.514;55.904;2023-05-10T02:07:51;41.85;;;26.38;;
60054;SDS011;45930;53.514;55.904;2023-05-10T02:08:53;36.80;;;24.88;;
60054;SDS011;45930;53.514;55.904;2023-05-10T02:09:55;33.95;;;25.80;;
60054;SDS011;45930;53.514;55.904;2023-05-10T02:10:56;37.65;;;26.52;;
60054;SDS011;45930;53.514;55.904;2023-05-10T02:11:58;32.22;;;23.33;;
60054;SDS011;45930;53.514;55.904;2023-05-10T02:13:01;35.40;;;24.88;;
60054;SDS011;45930;53.514;55.904;2023-05-10T02:14:03;40.45;;;27.58;;
60054;SDS011;45930;53.514;55.904;2023-05-10T02:15:08;39.75;;;26.77;;
60054;SDS011;45930;53.514;55.904;2023-05-10T02:16:11;32.55;;;25.35;;
60054;SDS011;45930;53.514;55.904;2023-05-10T02:17:14;33.63;;;26.92;;
60054;SDS011;45930;53.514;55.904;2023-05-10T02:18:17;43.25;;;26.38;;
60054;SDS011;45930;53.514;55.904;2023-05-10T02:19:19;34.42;;;25.15;;
60054;SDS011;45930;53.514;55.904;2023-05-10T02:20:22;36.95;;;27.13;;
60054;SDS011;45930;53.514;55.904;2023-05-10T02:21:24;36.15;;;26.45;;
60054;SDS011;45930;53.514;55.904;2023-05-10T02:22:27;37.78;;;26.98;;
60054;SDS011;45930;53.514;55.904;2023-05-10T02:23:29;37.00;;;27.05;;
60054;SDS011;45930;53.514;55.904;2023-05-10T02:24:31;36.60;;;26.60;;
60054;SDS011;45930;53.514;55.904;2023-05-10T02:25:34;36.60;;;25.73;;
60054;SDS011;45930;53.514;55.904;2023-05-10T02:26:36;41.38;;;26.75;;
60054;SDS011;45930;53.514;55.904;2023-05-10T02:27:38;40.42;;;28.48;;
60054;SDS011;45930;53.514;55.904;2023-05-10T02:28:43;34.10;;;27.80;;
60054;SDS011;45930;53.514;55.904;2023-05-10T02:29:45;41.67;;;27.27;;
60054;SDS011;45930;53.514;55.904;2023-05-10T02:30:47;39.03;;;25.90;;
60054;SDS011;45930;53.514;55.904;2023-05-10T02:31:49;45.92;;;28.23;;
60054;SDS011;45930;53.514;55.904;2023-05-10T02:32:52;35.40;;;26.05;;
60054;SDS011;45930;53.514;55.904;2023-05-10T02:33:54;38.55;;;25.70;;
60054;SDS011;45930;53.514;55.904;2023-05-10T02:34:56;37.80;;;27.33;;
60054;SDS011;45930;53.514;55.904;2023-05-10T02:35:59;40.83;;;26.70;;
60054;SDS011;45930;53.514;55.904;2023-05-10T02:37:01;34.67;;;26.75;;
60054;SDS011;45930;53.514;55.904;2023-05-10T02:38:03;36.10;;;27.08;;
60054;SDS011;45930;53.514;55.904;2023-05-10T02:39:05;40.38;;;28.27;;
60054;SDS011;45930;53.514;55.904;2023-05-10T02:40:10;37.42;;;26.90;;
60054;SDS011;45930;53.514;55.904;2023-05-10T02:41:12;38.33;;;27.60;;
60054;SDS011;45930;53.514;55.904;2023-05-10T02:42:16;39.17;;;27.23;;
60054;SDS011;45930;53.514;55.904;2023-05-10T02:43:19;38.30;;;27.73;;
60054;SDS011;45930;53.514;55.904;2023-05-10T02:44:23;36.55;;;25.63;;
60054;SDS011;45930;53.514;55.904;2023-05-10T02:45:27;37.13;;;27.02;;
60054;SDS011;45930;53.514;55.904;2023-05-10T02:46:30;37.05;;;26.88;;
60054;SDS011;45930;53.514;55.904;2023-05-10T02:47:31;32.88;;;27.05;;
60054;SDS011;45930;53.514;55.904;2023-05-10T02:48:32;42.33;;;27.40;;
60054;SDS011;45930;53.514;55.904;2023-05-10T02:49:33;38.58;;;28.83;;
60054;SDS011;45930;53.514;55.904;2023-05-10T02:50:35;39.67;;;26.75;;
60054;SDS011;45930;53.514;55.904;2023-05-10T02:51:40;38.80;;;26.20;;
60054;SDS011;45930;53.514;55.904;2023-05-10T02:52:47;39.67;;;26.48;;
60054;SDS011;45930;53.514;55.904;2023-05-10T02:53:52;37.30;;;27.40;;
60054;SDS011;45930;53.514;55.904;2023-05-10T02:54:55;38.35;;;27.58;;
60054;SDS011;45930;53.514;55.904;2023-05-10T02:56:01;40.80;;;26.95;;
60054;SDS011;45930;53.514;55.904;2023-05-10T02:57:15;38.08;;;27.10;;
60054;SDS011;45930;53.514;55.904;2023-05-10T02:58:18;38.88;;;27.38;;
60054;SDS011;45930;53.514;55.904;2023-05-10T02:59:22;38.10;;;27.30;;
60054;SDS011;45930;53.514;55.904;2023-05-10T03:00:24;38.67;;;27.58;;
60054;SDS011;45930;53.514;55.904;2023-05-10T03:01:25;44.80;;;28.92;;
60054;SDS011;45930;53.514;55.904;2023-05-10T03:02:26;38.28;;;28.00;;
60054;SDS011;45930;53.514;55.904;2023-05-10T03:03:27;39.75;;;29.55;;
60054;SDS011;45930;53.514;55.904;2023-05-10T03:04:28;40.85;;;27.75;;
60054;SDS011;45930;53.514;55.904;2023-05-10T03:05:28;40.25;;;29.05;;
60054;SDS011;45930;53.514;55.904;2023-05-10T03:06:29;36.90;;;28.58;;
60054;SDS011;45930;53.514;55.904;2023-05-10T03:07:30;36.95;;;26.90;;
60054;SDS011;45930;53.514;55.904;2023-05-10T03:08:32;39.38;;;28.48;;
60054;SDS011;45930;53.514;55.904;2023-05-10T03:09:34;40.25;;;26.17;;
60054;SDS011;45930;53.514;55.904;2023-05-10T03:10:38;37.65;;;28.23;;
60054;SDS011;45930;53.514;55.904;2023-05-10T03:13:24;37.97;;;26.38;;
60054;SDS011;45930;53.514;55.904;2023-05-10T03:15:10;39.47;;;30.08;;
60054;SDS011;45930;53.514;55.904;2023-05-10T03:16:22;40.53;;;27.13;;
60054;SDS011;45930;53.514;55.904;2023-05-10T03:18:41;41.22;;;28.80;;
60054;SDS011;45930;53.514;55.904;2023-05-10T03:19:53;40.50;;;29.33;;
60054;SDS011;45930;53.514;55.904;2023-05-10T03:20:57;38.30;;;28.88;;
60054;SDS011;45930;53.514;55.904;2023-05-10T03:22:06;36.63;;;25.85;;
60054;SDS011;45930;53.514;55.904;2023-05-10T03:23:12;33.05;;;22.98;;
60054;SDS011;45930;53.514;55.904;2023-05-10T03:24:21;40.58;;;28.25;;
60054;SDS011;45930;53.514;55.904;2023-05-10T03:25:27;39.28;;;28.50;;
60054;SDS011;45930;53.514;55.904;2023-05-10T03:26:30;40.38;;;28.02;;
60054;SDS011;45930;53.514;55.904;2023-05-10T03:27:33;50.35;;;30.05;;
60054;SDS011;45930;53.514;55.904;2023-05-10T03:28:36;39.33;;;28.20;;
60054;SDS011;45930;53.514;55.904;2023-05-10T03:29:38;41.17;;;25.80;;
60054;SDS011;45930;53.514;55.904;2023-05-10T03:30:41;42.33;;;28.58;;
60054;SDS011;45930;53.514;55.904;2023-05-10T03:31:43;39.60;;;28.65;;
60054;SDS011;45930;53.514;55.904;2023-05-10T03:32:44;38.40;;;27.55;;
60054;SDS011;45930;53.514;55.904;2023-05-10T03:33:46;40.83;;;28.50;;
60054;SDS011;45930;53.514;55.904;2023-05-10T03:34:50;39.08;;;28.77;;
60054;SDS011;45930;53.514;55.904;2023-05-10T03:35:51;37.40;;;27.48;;
60054;SDS011;45930;53.514;55.904;2023-05-10T03:36:52;52.35;;;28.52;;
60054;SDS011;45930;53.514;55.904;2023-05-10T03:37:53;41.83;;;29.25;;
60054;SDS011;45930;53.514;55.904;2023-05-10T03:38:53;39.03;;;29.27;;
60054;SDS011;45930;53.514;55.904;2023-05-10T03:39:54;41.08;;;28.48;;
60054;SDS011;45930;53.514;55.904;2023-05-10T03:40:55;40.55;;;29.02;;
60054;SDS011;45930;53.514;55.904;2023-05-10T03:41:56;38.25;;;27.77;;
60054;SDS011;45930;53.514;55.904;2023-05-10T03:42:57;39.25;;;28.58;;
60054;SDS011;45930;53.514;55.904;2023-05-10T03:43:59;39.05;;;28.27;;
60054;SDS011;45930;53.514;55.904;2023-05-10T03:45:00;40.60;;;29.13;;
60054;SDS011;45930;53.514;55.904;2023-05-10T03:46:01;43.92;;;29.23;;
60054;SDS011;45930;53.514;55.904;2023-05-10T03:47:03;35.03;;;25.77;;
60054;SDS011;45930;53.514;55.904;2023-05-10T03:48:04;40.80;;;27.23;;
60054;SDS011;45930;53.514;55.904;2023-05-10T03:49:05;40.13;;;28.13;;
60054;SDS011;45930;53.514;55.904;2023-05-10T03:50:06;38.78;;;27.77;;
60054;SDS011;45930;53.514;55.904;2023-05-10T03:51:08;37.38;;;27.00;;
60054;SDS011;45930;53.514;55.904;2023-05-10T03:52:08;40.63;;;28.55;;
60054;SDS011;45930;53.514;55.904;2023-05-10T03:53:09;40.17;;;30.13;;
60054;SDS011;45930;53.514;55.904;2023-05-10T03:54:10;40.28;;;28.83;;
60054;SDS011;45930;53.514;55.904;2023-05-10T03:55:11;35.90;;;27.52;;
60054;SDS011;45930;53.514;55.904;2023-05-10T03:56:12;42.97;;;30.23;;
60054;SDS011;45930;53.514;55.904;2023-05-10T03:57:13;40.53;;;27.90;;
60054;SDS011;45930;53.514;55.904;2023-05-10T03:58:13;40.10;;;29.70;;
60054;SDS011;45930;53.514;55.904;2023-05-10T03:59:14;44.85;;;29.10;;
60054;SDS011;45930;53.514;55.904;2023-05-10T04:00:15;42.33;;;29.17;;
60054;SDS011;45930;53.514;55.904;2023-05-10T04:01:16;37.28;;;28.73;;
60054;SDS011;45930;53.514;55.904;2023-05-10T04:02:17;40.20;;;28.80;;
60054;SDS011;45930;53.514;55.904;2023-05-10T04:03:18;43.30;;;30.25;;
60054;SDS011;45930;53.514;55.904;2023-05-10T04:04:19;39.40;;;28.75;;
60054;SDS011;45930;53.514;55.904;2023-05-10T04:05:21;42.25;;;30.40;;
60054;SDS011;45930;53.514;55.904;2023-05-10T04:06:21;47.03;;;28.88;;
60054;SDS011;45930;53.514;55.904;2023-05-10T04:07:22;44.90;;;30.08;;
60054;SDS011;45930;53.514;55.904;2023-05-10T04:08:23;41.42;;;29.58;;
60054;SDS011;45930;53.514;55.904;2023-05-10T04:09:24;45.22;;;30.58;;
60054;SDS011;45930;53.514;55.904;2023-05-10T04:10:25;42.88;;;31.00;;
60054;SDS011;45930;53.514;55.904;2023-05-10T04:11:26;43.83;;;30.17;;
60054;SDS011;45930;53.514;55.904;2023-05-10T04:12:27;41.25;;;27.50;;
60054;SDS011;45930;53.514;55.904;2023-05-10T04:13:27;40.58;;;29.45;;
60054;SDS011;45930;53.514;55.904;2023-05-10T04:14:28;39.85;;;27.17;;
60054;SDS011;45930;53.514;55.904;2023-05-10T04:15:29;43.60;;;29.70;;
60054;SDS011;45930;53.514;55.904;2023-05-10T04:16:30;39.15;;;28.70;;
60054;SDS011;45930;53.514;55.904;2023-05-10T04:17:31;42.83;;;30.17;;
60054;SDS011;45930;53.514;55.904;2023-05-10T04:18:32;45.58;;;29.48;;
60054;SDS011;45930;53.514;55.904;2023-05-10T04:19:33;39.45;;;27.45;;
60054;SDS011;45930;53.514;55.904;2023-05-10T04:20:33;40.67;;;28.52;;
60054;SDS011;45930;53.514;55.904;2023-05-10T04:21:34;41.90;;;30.17;;
60054;SDS011;45930;53.514;55.904;2023-05-10T04:22:36;44.40;;;30.15;;
60054;SDS011;45930;53.514;55.904;2023-05-10T04:23:37;41.08;;;28.55;;
60054;SDS011;45930;53.514;55.904;2023-05-10T04:24:37;37.00;;;27.27;;
60054;SDS011;45930;53.514;55.904;2023-05-10T04:25:38;42.15;;;29.90;;
60054;SDS011;45930;53.514;55.904;2023-05-10T04:26:39;43.13;;;31.02;;
60054;SDS011;45930;53.514;55.904;2023-05-10T04:27:40;40.53;;;29.20;;
60054;SDS011;45930;53.514;55.904;2023-05-10T04:28:41;43.47;;;30.25;;
60054;SDS011;45930;53.514;55.904;2023-05-10T04:29:42;38.33;;;28.95;;
60054;SDS011;45930;53.514;55.904;2023-05-10T04:30:43;43.55;;;28.15;;
60054;SDS011;45930;53.514;55.904;2023-05-10T04:31:44;40.03;;;29.67;;
60054;SDS011;45930;53.514;55.904;2023-05-10T04:32:45;43.22;;;30.77;;
60054;SDS011;45930;53.514;55.904;2023-05-10T04:33:46;42.45;;;27.27;;
60054;SDS011;45930;53.514;55.904;2023-05-10T04:34:46;41.30;;;29.45;;
60054;SDS011;45930;53.514;55.904;2023-05-10T04:35:47;40.83;;;29.33;;
60054;SDS011;45930;53.514;55.904;2023-05-10T04:36:48;41.25;;;29.55;;
60054;SDS011;45930;53.514;55.904;2023-05-10T04:37:49;41.47;;;30.08;;
60054;SDS011;45930;53.514;55.904;2023-05-10T04:38:50;41.28;;;30.75;;
60054;SDS011;45930;53.514;55.904;2023-05-10T04:39:50;43.10;;;30.40;;
60054;SDS011;45930;53.514;55.904;2023-05-10T04:40:51;49.65;;;31.25;;
60054;SDS011;45930;53.514;55.904;2023-05-10T04:41:52;40.75;;;31.48;;
60054;SDS011;45930;53.514;55.904;2023-05-10T04:42:53;47.97;;;34.25;;
60054;SDS011;45930;53.514;55.904;2023-05-10T04:43:54;45.30;;;33.10;;
60054;SDS011;45930;53.514;55.904;2023-05-10T04:44:55;42.55;;;32.22;;
60054;SDS011;45930;53.514;55.904;2023-05-10T04:45:59;43.03;;;32.13;;
60054;SDS011;45930;53.514;55.904;2023-05-10T04:47:00;50.63;;;35.45;;
60054;SDS011;45930;53.514;55.904;2023-05-10T04:48:02;47.72;;;36.30;;
60054;SDS011;45930;53.514;55.904;2023-05-10T04:49:03;50.78;;;36.40;;
60054;SDS011;45930;53.514;55.904;2023-05-10T04:50:04;52.70;;;38.03;;
60054;SDS011;45930;53.514;55.904;2023-05-10T04:51:05;54.30;;;38.83;;
60054;SDS011;45930;53.514;55.904;2023-05-10T04:52:06;53.75;;;38.63;;
60054;SDS011;45930;53.514;55.904;2023-05-10T04:53:07;53.25;;;38.50;;
60054;SDS011;45930;53.514;55.904;2023-05-10T04:54:08;51.60;;;36.75;;
60054;SDS011;45930;53.514;55.904;2023-05-10T04:55:09;52.20;;;37.45;;
60054;SDS011;45930;53.514;55.904;2023-05-10T04:56:10;46.85;;;35.40;;
60054;SDS011;45930;53.514;55.904;2023-05-10T04:57:11;53.80;;;37.15;;
60054;SDS011;45930;53.514;55.904;2023-05-10T04:58:12;58.30;;;39.42;;
60054;SDS011;45930;53.514;55.904;2023-05-10T04:59:13;54.10;;;39.95;;
60054;SDS011;45930;53.514;55.904;2023-05-10T05:00:13;56.72;;;41.35;;
60054;SDS011;45930;53.514;55.904;2023-05-10T05:01:15;62.08;;;43.10;;
60054;SDS011;45930;53.514;55.904;2023-05-10T05:02:15;73.10;;;45.97;;
60054;SDS011;45930;53.514;55.904;2023-05-10T05:03:16;64.85;;;44.88;;
60054;SDS011;45930;53.514;55.904;2023-05-10T05:04:17;63.83;;;45.28;;
60054;SDS011;45930;53.514;55.904;2023-05-10T05:05:18;58.17;;;45.47;;
60054;SDS011;45930;53.514;55.904;2023-05-10T05:06:19;58.78;;;43.90;;
60054;SDS011;45930;53.514;55.904;2023-05-10T05:07:21;60.00;;;44.53;;
60054;SDS011;45930;53.514;55.904;2023-05-10T05:08:22;59.40;;;41.88;;
60054;SDS011;45930;53.514;55.904;2023-05-10T05:09:24;61.25;;;42.45;;
60054;SDS011;45930;53.514;55.904;2023-05-10T05:10:25;63.58;;;42.88;;
60054;SDS011;45930;53.514;55.904;2023-05-10T05:11:25;62.28;;;43.28;;
60054;SDS011;45930;53.514;55.904;2023-05-10T05:12:26;60.33;;;43.47;;
60054;SDS011;45930;53.514;55.904;2023-05-10T05:13:27;72.35;;;46.50;;
60054;SDS011;45930;53.514;55.904;2023-05-10T05:14:28;58.30;;;43.72;;
60054;SDS011;45930;53.514;55.904;2023-05-10T05:15:28;65.43;;;44.13;;
60054;SDS011;45930;53.514;55.904;2023-05-10T05:16:30;52.45;;;42.58;;
60054;SDS011;45930;53.514;55.904;2023-05-10T05:17:32;63.47;;;43.75;;
60054;SDS011;45930;53.514;55.904;2023-05-10T05:18:33;61.90;;;45.50;;
60054;SDS011;45930;53.514;55.904;2023-05-10T05:19:33;59.03;;;44.50;;
60054;SDS011;45930;53.514;55.904;2023-05-10T05:20:34;65.90;;;46.78;;
60054;SDS011;45930;53.514;55.904;2023-05-10T05:21:35;59.58;;;45.20;;
60054;SDS011;45930;53.514;55.904;2023-05-10T05:22:36;63.17;;;45.30;;
60054;SDS011;45930;53.514;55.904;2023-05-10T05:23:37;61.17;;;46.40;;
60054;SDS011;45930;53.514;55.904;2023-05-10T05:24:38;63.78;;;45.80;;
60054;SDS011;45930;53.514;55.904;2023-05-10T05:25:39;59.17;;;45.25;;
60054;SDS011;45930;53.514;55.904;2023-05-10T05:26:39;65.00;;;47.42;;
60054;SDS011;45930;53.514;55.904;2023-05-10T05:27:40;59.80;;;46.17;;
60054;SDS011;45930;53.514;55.904;2023-05-10T05:28:41;61.97;;;45.13;;
60054;SDS011;45930;53.514;55.904;2023-05-10T05:29:42;60.08;;;44.80;;
60054;SDS011;45930;53.514;55.904;2023-05-10T05:30:43;62.47;;;46.90;;
60054;SDS011;45930;53.514;55.904;2023-05-10T05:31:44;56.65;;;44.00;;
60054;SDS011;45930;53.514;55.904;2023-05-10T05:32:44;60.90;;;45.47;;
60054;SDS011;45930;53.514;55.904;2023-05-10T05:33:47;60.28;;;45.88;;
60054;SDS011;45930;53.514;55.904;2023-05-10T05:34:48;59.72;;;45.15;;
60054;SDS011;45930;53.514;55.904;2023-05-10T05:35:48;60.55;;;46.45;;
60054;SDS011;45930;53.514;55.904;2023-05-10T05:36:51;63.10;;;46.55;;
60054;SDS011;45930;53.514;55.904;2023-05-10T05:37:52;60.13;;;46.85;;
60054;SDS011;45930;53.514;55.904;2023-05-10T05:38:52;62.75;;;46.53;;
60054;SDS011;45930;53.514;55.904;2023-05-10T05:39:53;60.63;;;43.75;;
60054;SDS011;45930;53.514;55.904;2023-05-10T05:40:55;62.75;;;46.35;;
60054;SDS011;45930;53.514;55.904;2023-05-10T05:41:56;63.67;;;45.80;;
60054;SDS011;45930;53.514;55.904;2023-05-10T05:42:56;64.75;;;44.53;;
60054;SDS011;45930;53.514;55.904;2023-05-10T05:43:57;63.22;;;44.58;;
60054;SDS011;45930;53.514;55.904;2023-05-10T05:44:58;60.85;;;44.65;;
60054;SDS011;45930;53.514;55.904;2023-05-10T05:45:59;61.72;;;46.75;;
60054;SDS011;45930;53.514;55.904;2023-05-10T05:47:00;61.85;;;47.00;;
60054;SDS011;45930;53.514;55.904;2023-05-10T05:48:01;62.25;;;46.58;;
60054;SDS011;45930;53.514;55.904;2023-05-10T05:49:01;62.10;;;46.60;;
60054;SDS011;45930;53.514;55.904;2023-05-10T05:50:03;64.70;;;46.83;;
60054;SDS011;45930;53.514;55.904;2023-05-10T05:51:05;70.78;;;46.97;;
60054;SDS011;45930;53.514;55.904;2023-05-10T05:52:06;66.82;;;49.55;;
60054;SDS011;45930;53.514;55.904;2023-05-10T05:53:07;65.15;;;47.95;;
60054;SDS011;45930;53.514;55.904;2023-05-10T05:54:09;62.47;;;47.83;;
60054;SDS011;45930;53.514;55.904;2023-05-10T05:55:09;67.28;;;47.45;;
60054;SDS011;45930;53.514;55.904;2023-05-10T05:56:10;62.85;;;45.67;;
60054;SDS011;45930;53.514;55.904;2023-05-10T05:57:11;65.40;;;46.72;;
60054;SDS011;45930;53.514;55.904;2023-05-10T05:58:12;66.70;;;46.50;;
60054;SDS011;45930;53.514;55.904;2023-05-10T05:59:13;60.45;;;45.15;;
60054;SDS011;45930;53.514;55.904;2023-05-10T06:00:14;63.40;;;47.13;;
60054;SDS011;45930;53.514;55.904;2023-05-10T06:01:15;64.35;;;47.38;;
60054;SDS011;45930;53.514;55.904;2023-05-10T06:02:16;64.38;;;46.60;;
60054;SDS011;45930;53.514;55.904;2023-05-10T06:03:16;65.30;;;47.90;;
60054;SDS011;45930;53.514;55.904;2023-05-10T06:04:18;67.10;;;47.42;;
60054;SDS011;45930;53.514;55.904;2023-05-10T06:05:19;60.20;;;45.90;;
60054;SDS011;45930;53.514;55.904;2023-05-10T06:06:20;65.35;;;47.05;;
60054;SDS011;45930;53.514;55.904;2023-05-10T06:07:21;68.35;;;45.95;;
60054;SDS011;45930;53.514;55.904;2023-05-10T06:08:22;59.53;;;46.67;;
60054;SDS011;45930;53.514;55.904;2023-05-10T06:09:23;63.30;;;45.97;;
60054;SDS011;45930;53.514;55.904;2023-05-10T06:10:24;62.63;;;46.50;;
60054;SDS011;45930;53.514;55.904;2023-05-10T06:11:25;64.72;;;46.00;;
60054;SDS011;45930;53.514;55.904;2023-05-10T06:12:26;64.68;;;47.78;;
60054;SDS011;45930;53.514;55.904;2023-05-10T06:13:27;66.43;;;49.90;;
60054;SDS011;45930;53.514;55.904;2023-05-10T06:14:32;64.43;;;47.63;;
60054;SDS011;45930;53.514;55.904;2023-05-10T06:15:33;72.90;;;51.40;;